createdAt,value
2023-02-09T00:01:39.649Z,3.80
2023-02-09T00:04:10.422Z,5.10
2023-02-09T00:06:41.324Z,3.60
2023-02-09T00:09:12.133Z,4.50
2023-02-09T00:12:00.680Z,4.30
2023-02-09T00:14:33.197Z,2.90
2023-02-09T00:17:06.001Z,4.90
2023-02-09T00:19:36.954Z,4.40
2023-02-09T00:22:07.696Z,4.10
2023-02-09T00:24:39.016Z,4.20
2023-02-09T00:27:10.078Z,5.10
2023-02-09T00:29:40.758Z,5.00
2023-02-09T00:32:12.471Z,4.70
2023-02-09T00:34:44.158Z,4.30
2023-02-09T00:37:15.088Z,4.50
2023-02-09T00:39:46.083Z,3.90
2023-02-09T00:42:17.080Z,4.50
2023-02-09T00:44:47.804Z,4.60
2023-02-09T00:47:18.946Z,4.30
2023-02-09T00:49:49.962Z,4.80
2023-02-09T00:52:20.602Z,5.60
2023-02-09T00:54:51.347Z,3.70
2023-02-09T00:57:22.141Z,5.90
2023-02-09T00:59:52.789Z,6.30
2023-02-09T01:02:23.581Z,5.70
2023-02-09T01:04:54.386Z,4.30
2023-02-09T01:07:25.163Z,5.10
2023-02-09T01:09:56.782Z,5.10
2023-02-09T01:12:27.575Z,3.50
2023-02-09T01:14:58.383Z,4.70
2023-02-09T01:17:30.564Z,5.00
2023-02-09T01:20:01.366Z,4.60
2023-02-09T01:22:32.121Z,4.50
2023-02-09T01:25:03.085Z,3.80
2023-02-09T01:27:33.747Z,4.80
2023-02-09T01:30:05.230Z,5.20
2023-02-09T01:32:38.123Z,5.30
2023-02-09T01:35:10.289Z,4.70
2023-02-09T01:37:41.177Z,4.50
2023-02-09T01:40:13.974Z,4.70
2023-02-09T01:42:44.818Z,5.30
2023-02-09T01:45:30.724Z,5.60
2023-02-09T01:48:04.615Z,4.40
2023-02-09T01:50:39.430Z,4.20
2023-02-09T01:53:11.008Z,5.10
2023-02-09T01:55:46.570Z,5.10
2023-02-09T01:58:19.837Z,4.70
2023-02-09T02:00:51.376Z,5.60
2023-02-09T02:03:26.898Z,5.00
2023-02-09T02:06:04.428Z,5.10
2023-02-09T02:08:40.914Z,5.20
2023-02-09T02:11:13.510Z,4.70
2023-02-09T02:13:44.301Z,5.30
2023-02-09T02:16:29.694Z,3.90
2023-02-09T02:19:16.298Z,5.80
2023-02-09T02:22:19.628Z,5.00
2023-02-09T02:25:19.224Z,4.90
2023-02-09T02:28:08.325Z,5.30
2023-02-09T02:31:01.228Z,4.90
2023-02-09T02:33:44.389Z,5.50
2023-02-09T02:36:26.852Z,5.50
2023-02-09T02:39:05.372Z,5.70
2023-02-09T02:41:59.280Z,4.10
2023-02-09T02:44:32.373Z,4.00
2023-02-09T02:47:08.398Z,4.10
2023-02-09T02:49:44.454Z,5.40
2023-02-09T02:52:15.336Z,4.90
2023-02-09T02:54:58.442Z,8.20
2023-02-09T02:57:32.922Z,7.00
2023-02-09T03:00:10.187Z,6.40
2023-02-09T03:02:44.759Z,6.00
2023-02-09T03:05:17.063Z,8.20
2023-02-09T03:07:47.767Z,5.50
2023-02-09T03:10:32.560Z,6.50
2023-02-09T03:13:12.738Z,6.30
2023-02-09T03:15:57.757Z,6.70
2023-02-09T03:18:35.543Z,6.30
2023-02-09T03:21:11.741Z,7.70
2023-02-09T03:23:48.667Z,6.40
2023-02-09T03:26:24.322Z,7.70
2023-02-09T03:28:58.929Z,7.50
2023-02-09T03:31:32.303Z,6.00
2023-02-09T03:34:06.221Z,6.40
2023-02-09T03:36:39.809Z,6.90
2023-02-09T03:39:10.900Z,5.90
2023-02-09T03:41:41.625Z,7.20
2023-02-09T03:44:28.674Z,7.10
2023-02-09T03:47:02.196Z,7.10
2023-02-09T03:52:04.608Z,6.00
2023-02-09T03:54:37.012Z,5.80
2023-02-09T03:57:08.692Z,1.60
2023-02-09T03:59:41.464Z,6.40
2023-02-09T04:02:23.331Z,5.80
2023-02-09T04:04:57.168Z,5.40
2023-02-09T04:07:28.114Z,6.10
2023-02-09T04:09:58.946Z,5.40
2023-02-09T04:12:29.873Z,4.80
2023-02-09T04:15:00.545Z,6.70
2023-02-09T04:17:31.207Z,5.40
2023-02-09T04:20:02.038Z,6.30
2023-02-09T04:22:32.857Z,4.90
2023-02-09T04:25:03.507Z,6.30
2023-02-09T04:27:34.676Z,4.00
2023-02-09T04:30:05.666Z,6.10
2023-02-09T04:32:36.356Z,6.70
2023-02-09T04:35:08.055Z,5.60
2023-02-09T04:37:38.914Z,6.40
2023-02-09T04:40:11.663Z,6.30
2023-02-09T04:42:45.735Z,6.10
2023-02-09T04:45:16.383Z,6.50
2023-02-09T04:47:47.145Z,6.20
2023-02-09T04:50:17.934Z,2.90
2023-02-09T04:52:48.645Z,5.40
2023-02-09T04:55:19.457Z,6.10
2023-02-09T04:58:07.812Z,5.10
2023-02-09T05:00:38.462Z,5.40
2023-02-09T05:03:09.446Z,6.90
2023-02-09T05:05:43.242Z,5.60
2023-02-09T05:08:14.003Z,6.00
2023-02-09T05:10:44.974Z,6.60
2023-02-09T05:13:16.011Z,8.50
2023-02-09T05:15:46.815Z,6.30
2023-02-09T05:18:17.851Z,6.90
2023-02-09T05:20:50.275Z,6.50
2023-02-09T05:23:21.199Z,8.10
2023-02-09T05:25:51.940Z,6.90
2023-02-09T05:28:22.623Z,8.10
2023-02-09T05:30:54.024Z,8.50
2023-02-09T05:33:26.383Z,8.20
2023-02-09T05:35:57.290Z,7.70
2023-02-09T05:38:28.111Z,7.90
2023-02-09T05:40:58.913Z,8.00
2023-02-09T05:43:29.670Z,7.90
2023-02-09T05:46:00.432Z,9.20
2023-02-09T05:48:31.592Z,8.50
2023-02-09T05:51:02.515Z,8.10
2023-02-09T05:53:33.309Z,6.90
2023-02-09T05:56:04.070Z,7.80
2023-02-09T05:58:34.761Z,6.50
2023-02-09T06:01:05.565Z,6.90
2023-02-09T06:03:39.221Z,8.00
2023-02-09T06:06:11.663Z,6.50
2023-02-09T06:08:42.484Z,7.40
2023-02-09T06:11:13.084Z,9.00
2023-02-09T06:13:43.697Z,8.50
2023-02-09T06:16:14.411Z,8.80
2023-02-09T06:18:45.178Z,6.80
2023-02-09T06:21:16.049Z,8.40
2023-02-09T06:23:46.760Z,8.30
2023-02-09T06:26:18.994Z,9.40
2023-02-09T06:28:49.795Z,9.70
2023-02-09T06:31:20.589Z,10.40
2023-02-09T06:33:51.363Z,7.40
2023-02-09T06:36:22.370Z,7.50
2023-02-09T06:38:53.006Z,7.70
2023-02-09T06:41:23.763Z,7.40
2023-02-09T06:43:54.699Z,10.10
2023-02-09T06:46:25.447Z,9.00
2023-02-09T06:48:57.574Z,9.30
2023-02-09T06:54:02.614Z,7.80
2023-02-09T06:56:33.215Z,7.30
2023-02-09T06:59:03.935Z,3.70
2023-02-09T07:01:34.688Z,5.80
2023-02-09T07:04:05.699Z,8.60
2023-02-09T07:06:36.400Z,9.10
2023-02-09T07:09:07.132Z,8.80
2023-02-09T07:11:38.210Z,9.20
2023-02-09T07:14:09.015Z,8.70
2023-02-09T07:16:39.981Z,4.30
2023-02-09T07:19:10.995Z,8.40
2023-02-09T07:21:41.797Z,5.00
2023-02-09T07:24:12.787Z,10.40
2023-02-09T07:26:43.808Z,7.60
2023-02-09T07:29:14.562Z,9.10
2023-02-09T07:31:45.502Z,8.40
2023-02-09T07:34:17.163Z,9.30
2023-02-09T07:36:48.467Z,8.90
2023-02-09T07:39:19.704Z,9.10
2023-02-09T07:41:51.098Z,9.00
2023-02-09T07:44:22.287Z,7.50
2023-02-09T07:46:53.338Z,11.90
2023-02-09T07:49:24.336Z,9.50
2023-02-09T07:51:55.120Z,9.20
2023-02-09T07:54:25.952Z,9.90
2023-02-09T07:56:58.801Z,9.70
2023-02-09T07:59:29.585Z,10.60
2023-02-09T08:02:00.722Z,11.50
2023-02-09T08:04:32.353Z,10.20
2023-02-09T08:07:03.184Z,10.40
2023-02-09T08:09:33.965Z,10.90
2023-02-09T08:12:08.736Z,11.50
2023-02-09T08:14:44.384Z,10.10
2023-02-09T08:17:24.380Z,10.70
2023-02-09T08:20:00.185Z,12.20
2023-02-09T08:22:34.497Z,12.10
2023-02-09T08:25:06.290Z,11.10
2023-02-09T08:27:39.151Z,12.70
2023-02-09T08:30:11.677Z,12.20
2023-02-09T08:32:42.546Z,12.10
2023-02-09T08:35:13.698Z,10.20
2023-02-09T08:37:44.486Z,11.80
2023-02-09T08:40:15.896Z,12.40
2023-02-09T08:42:46.577Z,11.80
2023-02-09T08:45:17.397Z,12.20
2023-02-09T08:47:48.757Z,10.90
2023-02-09T08:50:19.632Z,12.40
2023-02-09T08:52:50.607Z,12.00
2023-02-09T08:55:21.602Z,12.90
2023-02-09T08:57:52.259Z,15.50
2023-02-09T09:00:24.220Z,13.20
2023-02-09T09:02:54.845Z,13.70
2023-02-09T09:05:25.501Z,12.10
2023-02-09T09:07:56.248Z,12.00
2023-02-09T09:10:26.840Z,13.10
2023-02-09T09:12:57.493Z,10.30
2023-02-09T09:15:28.227Z,11.20
2023-02-09T09:17:58.993Z,10.20
2023-02-09T09:20:29.735Z,9.40
2023-02-09T09:23:01.970Z,11.20
2023-02-09T09:25:32.593Z,8.70
2023-02-09T09:28:03.298Z,8.70
2023-02-09T09:30:34.614Z,8.30
2023-02-09T09:33:05.920Z,9.90
2023-02-09T09:35:36.561Z,9.10
2023-02-09T09:38:07.338Z,8.50
2023-02-09T09:40:42.852Z,8.30
2023-02-09T09:43:24.168Z,8.30
2023-02-09T09:45:55.270Z,8.60
2023-02-09T09:48:29.660Z,8.40
2023-02-09T09:51:05.895Z,8.20
2023-02-09T09:53:38.974Z,8.40
2023-02-09T10:01:17.330Z,6.80
2023-02-09T10:03:48.271Z,7.60
2023-02-09T10:06:21.937Z,7.80
2023-02-09T10:08:58.466Z,7.20
2023-02-09T10:11:33.756Z,6.40
2023-02-09T10:14:04.570Z,7.20
2023-02-09T10:16:38.264Z,6.90
2023-02-09T10:19:20.641Z,5.70
2023-02-09T10:21:51.962Z,7.90
2023-02-09T10:24:27.185Z,7.60
2023-02-09T10:27:13.918Z,7.10
2023-02-09T10:29:44.832Z,7.30
2023-02-09T10:32:22.022Z,6.70
2023-02-09T10:34:54.349Z,5.30
2023-02-09T10:37:34.368Z,6.70
2023-02-09T10:40:15.216Z,7.40
2023-02-09T10:42:56.100Z,7.00
2023-02-09T10:45:33.736Z,8.00
2023-02-09T10:48:19.110Z,6.70
2023-02-09T10:50:55.508Z,6.90
2023-02-09T10:53:29.751Z,8.30
2023-02-09T10:56:06.254Z,6.20
2023-02-09T10:58:38.558Z,6.40
2023-02-09T11:01:20.884Z,4.70
2023-02-09T11:04:02.533Z,6.20
2023-02-09T11:06:42.622Z,5.30
2023-02-09T11:09:18.075Z,6.30
2023-02-09T11:11:49.118Z,6.50
2023-02-09T11:14:21.088Z,6.50
2023-02-09T11:17:05.643Z,5.30
2023-02-09T11:20:04.795Z,5.70
2023-02-09T11:23:06.326Z,4.90
2023-02-09T11:25:43.630Z,3.50
2023-02-09T11:28:29.307Z,7.00
2023-02-09T11:31:44.422Z,7.30
2023-02-09T11:34:30.294Z,5.40
2023-02-09T11:37:08.430Z,4.60
2023-02-09T11:39:49.801Z,5.30
2023-02-09T11:42:43.908Z,4.80
2023-02-09T11:45:21.104Z,6.40
2023-02-09T11:48:01.732Z,3.60
2023-02-09T11:50:36.601Z,5.70
2023-02-09T11:53:15.889Z,5.60
2023-02-09T11:55:50.387Z,5.30
2023-02-09T11:58:33.871Z,5.30
2023-02-09T12:01:15.788Z,4.00
2023-02-09T12:03:57.106Z,5.40
2023-02-09T12:06:30.858Z,6.10
2023-02-09T12:09:11.603Z,6.10
2023-02-09T12:11:54.693Z,5.60
2023-02-09T12:14:45.510Z,4.50
2023-02-09T12:17:20.244Z,5.30
2023-02-09T12:19:59.625Z,3.80
2023-02-09T12:23:02.180Z,5.70
2023-02-09T12:25:59.882Z,5.60
2023-02-09T12:28:48.517Z,4.70
2023-02-09T12:31:26.053Z,5.10
2023-02-09T12:34:14.604Z,5.10
2023-02-09T12:37:16.751Z,6.30
2023-02-09T12:40:23.730Z,5.10
2023-02-09T12:43:26.282Z,4.60
2023-02-09T12:46:24.810Z,5.30
2023-02-09T12:49:10.143Z,5.40
2023-02-09T12:51:51.164Z,4.70
2023-02-09T12:54:41.488Z,6.50
2023-02-09T12:57:52.162Z,5.40
2023-02-09T13:00:57.621Z,6.10
2023-02-09T13:03:30.170Z,6.60
2023-02-09T13:06:03.014Z,5.90
2023-02-09T13:08:54.554Z,7.30
2023-02-09T13:11:39.136Z,4.40
2023-02-09T13:14:13.283Z,7.30
2023-02-09T13:17:27.615Z,7.20
2023-02-09T13:20:37.579Z,6.70
2023-02-09T13:23:21.759Z,5.40
2023-02-09T13:25:59.553Z,6.20
2023-02-09T13:28:30.453Z,7.10
2023-02-09T13:31:02.300Z,7.30
2023-02-09T13:33:45.487Z,6.80
2023-02-09T13:36:30.960Z,6.50
2023-02-09T13:39:03.046Z,5.40
2023-02-09T13:41:39.132Z,6.90
2023-02-09T13:44:24.008Z,6.90
2023-02-09T13:47:01.049Z,5.90
2023-02-09T13:49:32.344Z,6.30
2023-02-09T13:52:15.231Z,3.60
2023-02-09T13:54:46.144Z,4.70
2023-02-09T13:57:35.325Z,5.40
2023-02-09T14:00:17.899Z,4.90
2023-02-09T14:05:29.802Z,5.80
2023-02-09T14:08:00.832Z,6.70
2023-02-09T14:10:34.436Z,5.80
2023-02-09T14:13:09.028Z,5.10
2023-02-09T14:15:59.712Z,6.00
2023-02-09T14:18:44.213Z,4.90
2023-02-09T14:21:21.467Z,6.60
2023-02-09T14:24:14.849Z,6.30
2023-02-09T14:26:52.559Z,5.50
2023-02-09T14:29:26.278Z,6.50
2023-02-09T14:31:59.438Z,4.80
2023-02-09T14:37:25.542Z,6.10
2023-02-09T14:40:00.627Z,4.90
2023-02-09T14:42:32.858Z,4.70
2023-02-09T14:45:27.774Z,6.50
2023-02-09T14:47:58.829Z,3.60
2023-02-09T14:50:29.696Z,6.30
2023-02-09T14:53:14.437Z,6.00
2023-02-09T14:55:45.567Z,5.20
2023-02-09T14:58:23.330Z,6.60
2023-02-09T15:00:55.979Z,6.90
2023-02-09T15:03:26.853Z,5.30
2023-02-09T15:06:01.921Z,7.20
2023-02-09T15:08:36.442Z,5.20
2023-02-09T15:11:23.623Z,6.00
2023-02-09T15:13:58.172Z,7.00
2023-02-09T15:16:28.867Z,7.50
2023-02-09T15:18:59.905Z,6.40
2023-02-09T15:21:30.623Z,6.80
2023-02-09T15:24:01.256Z,6.20
2023-02-09T15:26:34.146Z,5.80
2023-02-09T15:29:08.173Z,8.80
2023-02-09T15:31:38.811Z,4.60
2023-02-09T15:34:11.334Z,6.80
2023-02-09T15:36:42.077Z,6.90
2023-02-09T15:39:20.799Z,7.30
2023-02-09T15:42:09.672Z,6.50
2023-02-09T15:44:58.420Z,7.10
2023-02-09T15:47:46.819Z,7.80
2023-02-09T15:50:18.568Z,7.20
2023-02-09T15:52:49.278Z,5.60
2023-02-09T15:55:23.034Z,6.00
2023-02-09T15:57:55.340Z,4.90
2023-02-09T16:00:28.469Z,7.40
2023-02-09T16:03:01.136Z,7.70
2023-02-09T16:05:32.879Z,8.30
2023-02-09T16:08:03.760Z,7.40
2023-02-09T16:10:34.597Z,7.70
2023-02-09T16:13:07.042Z,8.00
2023-02-09T16:15:37.823Z,8.20
2023-02-09T16:18:08.721Z,7.60
2023-02-09T16:20:46.741Z,7.20
2023-02-09T16:23:21.523Z,7.50
2023-02-09T16:25:54.402Z,7.20
2023-02-09T16:28:25.162Z,9.70
2023-02-09T16:30:58.313Z,9.40
2023-02-09T16:33:29.336Z,9.40
2023-02-09T16:36:02.456Z,9.90
2023-02-09T16:38:33.620Z,9.60
2023-02-09T16:41:04.442Z,10.90
2023-02-09T16:43:35.583Z,10.50
2023-02-09T16:46:07.705Z,10.70
2023-02-09T16:48:40.712Z,10.70
2023-02-09T16:51:15.856Z,12.00
2023-02-09T16:53:50.246Z,11.30
2023-02-09T16:56:21.668Z,11.30
2023-02-09T16:58:52.370Z,11.30
2023-02-09T17:01:24.754Z,11.00
2023-02-09T17:03:57.475Z,10.30
2023-02-09T17:06:31.242Z,13.60
2023-02-09T17:09:01.985Z,11.20
2023-02-09T17:11:32.855Z,12.60
2023-02-09T17:14:03.611Z,11.30
2023-02-09T17:16:38.231Z,12.30
2023-02-09T17:19:15.024Z,11.10
2023-02-09T17:21:45.680Z,12.20
2023-02-09T17:24:18.407Z,11.60
2023-02-09T17:26:49.162Z,10.10
2023-02-09T17:29:21.992Z,10.50
2023-02-09T17:31:53.992Z,10.60
2023-02-09T17:34:27.440Z,12.20
2023-02-09T17:39:29.899Z,10.40
2023-02-09T17:42:01.487Z,11.40
2023-02-09T17:44:45.630Z,11.40
2023-02-09T17:47:18.596Z,10.90
2023-02-09T17:49:49.340Z,10.30
2023-02-09T17:52:21.099Z,10.60
2023-02-09T17:54:51.980Z,11.40
2023-02-09T17:57:23.320Z,9.30
2023-02-09T17:59:54.079Z,9.20
2023-02-09T18:02:24.798Z,9.20
2023-02-09T18:04:55.589Z,8.80
2023-02-09T18:07:26.470Z,9.90
2023-02-09T18:09:57.230Z,11.30
2023-02-09T18:12:29.362Z,13.00
2023-02-09T18:15:00.383Z,14.20
2023-02-09T18:17:31.584Z,12.60
2023-02-09T18:20:02.306Z,11.60
2023-02-09T18:22:33.090Z,12.70
2023-02-09T18:25:03.719Z,13.10
2023-02-09T18:27:34.448Z,13.50
2023-02-09T18:30:05.885Z,12.40
2023-02-09T18:32:36.679Z,12.70
2023-02-09T18:35:08.358Z,13.70
2023-02-09T18:37:39.112Z,13.00
2023-02-09T18:40:10.721Z,11.60
2023-02-09T18:42:41.664Z,9.80
2023-02-09T18:45:13.385Z,12.00
2023-02-09T18:47:44.864Z,12.80
2023-02-09T18:50:19.364Z,12.70
2023-02-09T18:52:52.223Z,12.80
2023-02-09T18:55:25.646Z,14.30
2023-02-09T18:57:56.730Z,14.40
2023-02-09T19:00:28.416Z,16.10
2023-02-09T19:03:00.042Z,15.70
2023-02-09T19:05:34.490Z,15.30
2023-02-09T19:08:07.388Z,14.50
2023-02-09T19:10:38.344Z,14.10
2023-02-09T19:13:09.392Z,13.30
2023-02-09T19:15:41.000Z,11.50
2023-02-09T19:18:12.441Z,9.40
2023-02-09T19:20:43.311Z,10.30
2023-02-09T19:23:14.074Z,10.90
2023-02-09T19:25:45.065Z,10.50
2023-02-09T19:28:15.981Z,9.70
2023-02-09T19:30:46.939Z,9.10
2023-02-09T19:33:17.952Z,10.60
2023-02-09T19:35:56.106Z,10.10
2023-02-09T19:38:27.407Z,10.10
2023-02-09T19:41:10.555Z,9.20
2023-02-09T19:43:42.467Z,6.90
2023-02-09T19:46:13.392Z,7.00
2023-02-09T19:48:44.463Z,9.60
2023-02-09T19:51:15.214Z,9.20
2023-02-09T19:53:45.922Z,9.20
2023-02-09T19:56:19.494Z,9.10
2023-02-09T19:58:50.606Z,10.40
2023-02-09T20:01:21.750Z,8.70
2023-02-09T20:03:52.483Z,8.60
2023-02-09T20:06:23.327Z,7.50
2023-02-09T20:08:54.086Z,10.80
2023-02-09T20:11:25.100Z,9.50
2023-02-09T20:13:56.306Z,9.40
2023-02-09T20:16:28.468Z,12.20
2023-02-09T20:18:59.431Z,11.90
2023-02-09T20:21:30.129Z,11.70
2023-02-09T20:24:00.871Z,13.30
2023-02-09T20:26:33.347Z,10.30
2023-02-09T20:29:05.867Z,7.80
2023-02-09T20:31:40.108Z,11.50
2023-02-09T20:34:13.589Z,10.00
2023-02-09T20:36:48.027Z,9.80
2023-02-09T20:39:19.746Z,9.40
2023-02-09T20:42:13.467Z,9.80
2023-02-09T20:44:58.842Z,8.40
2023-02-09T20:47:30.200Z,8.60
2023-02-09T20:50:01.654Z,11.10
2023-02-09T20:52:32.754Z,10.90
2023-02-09T20:55:03.542Z,10.10
2023-02-09T20:57:34.474Z,10.30
2023-02-09T21:00:09.098Z,10.10
2023-02-09T21:02:40.461Z,10.40
2023-02-09T21:05:12.058Z,9.50
2023-02-09T21:07:43.148Z,9.30
2023-02-09T21:10:15.880Z,11.00
2023-02-09T21:12:47.365Z,6.80
2023-02-09T21:15:18.743Z,8.90
2023-02-09T21:17:49.333Z,11.60
2023-02-09T21:20:20.383Z,9.60
2023-02-09T21:22:51.133Z,9.90
2023-02-09T21:25:22.184Z,9.60
2023-02-09T21:27:55.634Z,7.40
2023-02-09T21:30:26.390Z,9.80
2023-02-09T21:33:00.448Z,10.00
2023-02-09T21:35:31.118Z,9.20
2023-02-09T21:38:01.731Z,7.80
2023-02-09T21:40:32.711Z,8.70
2023-02-09T21:43:03.470Z,9.60
2023-02-09T21:45:34.267Z,8.70
2023-02-09T21:48:05.467Z,4.80
2023-02-09T21:50:36.221Z,9.30
2023-02-09T21:53:06.984Z,9.90
2023-02-09T21:55:37.648Z,9.30
2023-02-09T21:58:08.331Z,7.80
2023-02-09T22:00:39.046Z,9.10
2023-02-09T22:03:10.584Z,9.20
2023-02-09T22:05:41.322Z,8.20
2023-02-09T22:08:12.157Z,10.20
2023-02-09T22:10:42.809Z,9.10
2023-02-09T22:13:13.768Z,9.30
2023-02-09T22:15:44.764Z,8.40
2023-02-09T22:18:15.828Z,9.10
2023-02-09T22:20:48.499Z,10.80
2023-02-09T22:23:20.059Z,9.20
2023-02-09T22:25:50.859Z,10.20
2023-02-09T22:28:21.671Z,10.70
2023-02-09T22:30:52.540Z,9.80
2023-02-09T22:33:23.737Z,9.40
2023-02-09T22:35:54.511Z,7.80
2023-02-09T22:38:25.320Z,9.30
2023-02-09T22:40:56.026Z,9.60
2023-02-09T22:43:26.977Z,8.10
2023-02-09T22:45:59.178Z,10.30
2023-02-09T22:48:29.931Z,10.10
2023-02-09T22:51:00.664Z,9.10
2023-02-09T22:53:31.450Z,9.10
2023-02-09T22:56:04.850Z,8.10
2023-02-09T23:01:05.288Z,6.40
2023-02-09T23:03:36.796Z,5.80
2023-02-09T23:06:12.622Z,8.50
2023-02-09T23:08:43.319Z,7.10
2023-02-09T23:11:16.845Z,7.70
2023-02-09T23:13:50.883Z,8.80
2023-02-09T23:16:28.534Z,6.80
2023-02-09T23:19:01.013Z,6.90
2023-02-09T23:21:33.621Z,8.20
2023-02-09T23:24:05.045Z,7.20
2023-02-09T23:26:36.373Z,8.00
2023-02-09T23:29:08.826Z,8.40
2023-02-09T23:31:40.151Z,8.40
2023-02-09T23:34:13.350Z,8.70
2023-02-09T23:36:44.201Z,8.40
2023-02-09T23:39:17.926Z,7.70
2023-02-09T23:41:48.893Z,8.20
2023-02-09T23:44:19.597Z,8.60
2023-02-09T23:46:50.323Z,7.80
2023-02-09T23:49:22.804Z,7.80
2023-02-09T23:51:53.577Z,6.80
2023-02-09T23:54:24.363Z,7.10
2023-02-09T23:56:55.016Z,6.80
2023-02-09T23:59:25.770Z,7.40
